createdAt,value
2022-09-20T00:00:43.697Z,90.30
2022-09-20T00:01:43.713Z,89.83
2022-09-20T00:02:43.614Z,89.62
2022-09-20T00:03:43.596Z,89.72
2022-09-20T00:04:43.637Z,89.47
2022-09-20T00:05:43.582Z,89.17
2022-09-20T00:06:43.598Z,89.21
2022-09-20T00:07:43.558Z,89.00
2022-09-20T00:08:43.543Z,89.72
2022-09-20T00:09:43.557Z,89.62
2022-09-20T00:10:43.538Z,89.31
2022-09-20T00:11:43.551Z,89.72
2022-09-20T00:12:43.513Z,89.98
2022-09-20T00:13:43.498Z,89.51
2022-09-20T00:14:43.508Z,89.42
2022-09-20T00:15:43.491Z,88.86
2022-09-20T00:16:43.547Z,89.89
2022-09-20T00:17:43.463Z,89.72
2022-09-20T00:18:43.463Z,89.31
2022-09-20T00:19:43.455Z,89.83
2022-09-20T00:20:43.440Z,90.03
2022-09-20T00:21:43.457Z,89.83
2022-09-20T00:22:43.439Z,89.62
2022-09-20T00:23:43.431Z,89.62
2022-09-20T00:24:46.865Z,89.83
2022-09-20T00:25:43.397Z,89.62
2022-09-20T00:26:43.402Z,89.11
2022-09-20T00:27:43.373Z,90.13
2022-09-20T00:28:43.373Z,90.03
2022-09-20T00:29:43.363Z,89.51
2022-09-20T00:30:43.342Z,89.72
2022-09-20T00:31:43.437Z,89.83
2022-09-20T00:32:43.340Z,89.51
2022-09-20T00:33:43.313Z,89.83
2022-09-20T00:34:43.299Z,89.72
2022-09-20T00:35:43.291Z,89.72
2022-09-20T00:36:43.301Z,90.03
2022-09-20T00:37:43.268Z,89.83
2022-09-20T00:38:43.258Z,89.92
2022-09-20T00:39:43.248Z,89.62
2022-09-20T00:40:43.267Z,90.03
2022-09-20T00:41:43.254Z,89.58
2022-09-20T00:42:43.219Z,89.83
2022-09-20T00:43:43.208Z,90.13
2022-09-20T00:44:43.199Z,89.72
2022-09-20T00:45:43.234Z,89.31
2022-09-20T00:46:43.200Z,89.51
2022-09-20T00:47:43.168Z,89.21
2022-09-20T00:48:43.149Z,89.42
2022-09-20T00:49:43.145Z,89.31
2022-09-20T00:50:43.133Z,89.00
2022-09-20T00:51:43.151Z,88.49
2022-09-20T00:52:43.107Z,88.70
2022-09-20T00:53:43.106Z,88.49
2022-09-20T00:54:43.094Z,88.76
2022-09-20T00:55:43.093Z,87.98
2022-09-20T00:56:43.105Z,88.39
2022-09-20T00:57:43.075Z,88.59
2022-09-20T00:58:43.061Z,87.57
2022-09-20T00:59:43.051Z,88.39
2022-09-20T01:00:43.095Z,88.39
2022-09-20T01:01:43.194Z,88.18
2022-09-20T01:02:43.100Z,88.18
2022-09-20T01:03:43.004Z,88.29
2022-09-20T01:04:43.994Z,88.59
2022-09-20T01:05:42.996Z,87.98
2022-09-20T01:06:43.000Z,88.49
2022-09-20T01:07:42.975Z,88.18
2022-09-20T01:08:42.959Z,88.59
2022-09-20T01:09:42.950Z,88.70
2022-09-20T01:10:42.939Z,88.39
2022-09-20T01:11:42.951Z,87.98
2022-09-20T01:12:42.929Z,87.88
2022-09-20T01:13:42.921Z,88.18
2022-09-20T01:14:42.899Z,88.08
2022-09-20T01:15:42.891Z,88.29
2022-09-20T01:16:42.941Z,88.39
2022-09-20T01:17:42.869Z,88.59
2022-09-20T01:18:42.852Z,88.49
2022-09-20T01:19:42.857Z,88.59
2022-09-20T01:20:42.840Z,88.29
2022-09-20T01:21:42.848Z,88.08
2022-09-20T01:22:42.827Z,88.23
2022-09-20T01:23:42.813Z,88.43
2022-09-20T01:24:42.809Z,87.98
2022-09-20T01:25:42.791Z,88.08
2022-09-20T01:26:42.806Z,88.08
2022-09-20T01:27:42.773Z,88.49
2022-09-20T01:28:42.753Z,88.59
2022-09-20T01:29:42.757Z,88.39
2022-09-20T01:30:42.743Z,87.98
2022-09-20T01:31:42.846Z,88.33
2022-09-20T01:32:42.726Z,87.98
2022-09-20T01:33:42.712Z,87.71
2022-09-20T01:34:42.707Z,87.77
2022-09-20T01:35:42.700Z,88.18
2022-09-20T01:36:42.706Z,88.23
2022-09-20T01:37:42.679Z,88.64
2022-09-20T01:38:42.665Z,88.02
2022-09-20T01:39:42.661Z,88.43
2022-09-20T01:40:42.671Z,88.94
2022-09-20T01:41:42.655Z,88.23
2022-09-20T01:42:42.628Z,88.33
2022-09-20T01:43:42.619Z,88.23
2022-09-20T01:44:42.600Z,88.12
2022-09-20T01:45:42.614Z,88.12
2022-09-20T01:46:42.607Z,87.92
2022-09-20T01:47:42.578Z,87.71
2022-09-20T01:48:42.566Z,88.39
2022-09-20T01:49:42.552Z,88.23
2022-09-20T01:50:42.545Z,88.02
2022-09-20T01:51:42.556Z,88.43
2022-09-20T01:52:42.521Z,88.74
2022-09-20T01:53:42.534Z,88.53
2022-09-20T01:54:42.501Z,88.02
2022-09-20T01:55:42.512Z,88.43
2022-09-20T01:56:42.525Z,88.18
2022-09-20T01:57:42.481Z,88.43
2022-09-20T01:58:42.472Z,88.53
2022-09-20T01:59:42.473Z,88.53
2022-09-20T02:00:42.475Z,88.84
2022-09-20T02:01:42.460Z,88.43
2022-09-20T02:02:42.490Z,88.23
2022-09-20T02:03:42.424Z,88.74
2022-09-20T02:04:42.403Z,88.29
2022-09-20T02:05:42.403Z,88.02
2022-09-20T02:06:42.425Z,88.12
2022-09-20T02:07:42.384Z,88.53
2022-09-20T02:08:42.368Z,87.71
2022-09-20T02:09:42.373Z,88.43
2022-09-20T02:10:42.362Z,88.43
2022-09-20T02:11:42.360Z,88.43
2022-09-20T02:12:42.338Z,88.43
2022-09-20T02:13:42.327Z,88.18
2022-09-20T02:14:42.326Z,88.53
2022-09-20T02:15:42.308Z,88.33
2022-09-20T02:16:42.431Z,88.94
2022-09-20T02:17:42.278Z,88.23
2022-09-20T02:18:42.294Z,88.18
2022-09-20T02:19:42.259Z,87.61
2022-09-20T02:21:14.176Z,88.23
2022-09-20T02:21:42.243Z,88.12
2022-09-20T02:22:42.231Z,87.71
2022-09-20T02:23:42.221Z,87.61
2022-09-20T02:24:42.197Z,87.61
2022-09-20T02:25:42.200Z,87.61
2022-09-20T02:26:42.208Z,87.82
2022-09-20T02:27:42.180Z,87.10
2022-09-20T02:28:42.169Z,85.87
2022-09-20T02:29:42.155Z,86.18
2022-09-20T02:30:42.143Z,86.07
2022-09-20T02:31:42.253Z,85.83
2022-09-20T02:32:42.120Z,85.42
2022-09-20T02:33:43.118Z,85.31
2022-09-20T02:34:42.113Z,85.83
2022-09-20T02:35:42.103Z,85.63
2022-09-20T02:36:42.115Z,86.24
2022-09-20T02:37:42.088Z,86.24
2022-09-20T02:38:42.073Z,86.44
2022-09-20T02:39:42.061Z,87.20
2022-09-20T02:40:42.155Z,87.57
2022-09-20T02:41:42.063Z,87.61
2022-09-20T02:42:42.032Z,87.61
2022-09-20T02:43:42.038Z,87.71
2022-09-20T02:44:42.016Z,88.12
2022-09-20T02:45:42.052Z,88.53
2022-09-20T02:46:42.010Z,88.64
2022-09-20T02:47:41.986Z,87.82
2022-09-20T02:48:41.970Z,88.33
2022-09-20T02:49:41.960Z,88.53
2022-09-20T02:50:41.954Z,88.64
2022-09-20T02:51:41.971Z,88.53
2022-09-20T02:52:41.939Z,88.74
2022-09-20T02:53:41.923Z,88.64
2022-09-20T02:54:41.919Z,88.64
2022-09-20T02:55:41.893Z,88.84
2022-09-20T02:56:41.916Z,89.97
2022-09-20T02:57:41.888Z,89.36
2022-09-20T02:58:41.874Z,90.07
2022-09-20T02:59:41.861Z,90.22
2022-09-20T03:00:41.852Z,90.01
2022-09-20T03:01:41.940Z,90.11
2022-09-20T03:02:41.903Z,89.97
2022-09-20T03:03:41.821Z,90.83
2022-09-20T03:04:41.815Z,90.93
2022-09-20T03:05:41.807Z,90.62
2022-09-20T03:06:41.828Z,90.52
2022-09-20T03:07:41.786Z,91.03
2022-09-20T03:08:41.801Z,90.62
2022-09-20T03:09:41.767Z,91.03
2022-09-20T03:10:41.787Z,90.46
2022-09-20T03:11:41.748Z,90.83
2022-09-20T03:12:41.732Z,90.52
2022-09-20T03:13:41.727Z,90.42
2022-09-20T03:14:41.720Z,90.01
2022-09-20T03:15:41.722Z,89.81
2022-09-20T03:16:41.780Z,90.11
2022-09-20T03:17:42.705Z,89.90
2022-09-20T03:18:41.675Z,89.70
2022-09-20T03:19:41.662Z,90.42
2022-09-20T03:20:41.698Z,89.90
2022-09-20T03:21:41.666Z,90.11
2022-09-20T03:22:41.634Z,90.01
2022-09-20T03:23:41.627Z,90.73
2022-09-20T03:24:41.617Z,90.16
2022-09-20T03:25:41.618Z,90.26
2022-09-20T03:26:41.616Z,90.42
2022-09-20T03:27:41.587Z,91.08
2022-09-20T03:28:41.580Z,90.97
2022-09-20T03:29:41.561Z,90.77
2022-09-20T03:30:41.614Z,90.26
2022-09-20T03:31:41.589Z,90.26
2022-09-20T03:32:41.541Z,90.11
2022-09-20T03:33:41.530Z,90.32
2022-09-20T03:34:41.521Z,90.97
2022-09-20T03:35:41.617Z,91.38
2022-09-20T03:36:41.515Z,90.97
2022-09-20T03:37:41.487Z,89.90
2022-09-20T03:38:41.474Z,90.01
2022-09-20T03:39:41.468Z,89.90
2022-09-20T03:40:46.243Z,89.90
2022-09-20T03:41:43.484Z,89.81
2022-09-20T03:42:41.442Z,89.70
2022-09-20T03:43:41.420Z,89.84
2022-09-20T03:44:41.415Z,90.11
2022-09-20T03:45:41.469Z,90.26
2022-09-20T03:46:41.392Z,90.46
2022-09-20T03:47:41.386Z,90.42
2022-09-20T03:48:41.381Z,90.26
2022-09-20T03:49:41.370Z,90.36
2022-09-20T03:50:41.361Z,90.56
2022-09-20T03:51:41.364Z,90.46
2022-09-20T03:52:41.338Z,89.81
2022-09-20T03:53:41.328Z,90.05
2022-09-20T03:54:41.324Z,89.95
2022-09-20T03:55:41.300Z,90.22
2022-09-20T03:56:41.317Z,89.95
2022-09-20T03:57:41.290Z,90.01
2022-09-20T03:58:41.281Z,90.11
2022-09-20T03:59:41.269Z,90.36
2022-09-20T04:00:41.326Z,90.36
2022-09-20T04:01:41.272Z,90.36
2022-09-20T04:02:41.330Z,90.16
2022-09-20T04:03:41.228Z,89.95
2022-09-20T04:04:41.220Z,89.64
2022-09-20T04:05:41.209Z,89.75
2022-09-20T04:06:41.225Z,90.05
2022-09-20T04:07:41.188Z,89.39
2022-09-20T04:08:41.181Z,89.39
2022-09-20T04:09:41.171Z,89.64
2022-09-20T04:10:41.184Z,89.43
2022-09-20T04:11:41.153Z,89.75
2022-09-20T04:12:41.130Z,89.39
2022-09-20T04:13:41.134Z,89.43
2022-09-20T04:14:41.129Z,89.29
2022-09-20T04:15:41.108Z,89.50
2022-09-20T04:16:41.181Z,89.19
2022-09-20T04:17:41.087Z,89.19
2022-09-20T04:18:41.091Z,89.39
2022-09-20T04:19:41.074Z,89.09
2022-09-20T04:20:41.067Z,89.33
2022-09-20T04:21:41.076Z,89.29
2022-09-20T04:22:41.038Z,89.33
2022-09-20T04:23:41.028Z,89.50
2022-09-20T04:24:41.026Z,89.60
2022-09-20T04:25:44.049Z,89.13
2022-09-20T04:26:42.023Z,88.57
2022-09-20T04:27:40.998Z,88.57
2022-09-20T04:28:40.997Z,88.57
2022-09-20T04:29:40.971Z,88.37
2022-09-20T04:30:40.979Z,88.68
2022-09-20T04:31:41.026Z,88.68
2022-09-20T04:32:40.948Z,88.78
2022-09-20T04:33:40.930Z,88.78
2022-09-20T04:34:40.930Z,88.27
2022-09-20T04:35:40.907Z,88.78
2022-09-20T04:36:40.934Z,88.57
2022-09-20T04:37:40.892Z,88.78
2022-09-20T04:38:40.890Z,88.21
2022-09-20T04:39:40.863Z,88.78
2022-09-20T04:40:40.930Z,88.78
2022-09-20T04:41:40.877Z,88.78
2022-09-20T04:42:40.845Z,88.78
2022-09-20T04:43:40.827Z,88.68
2022-09-20T04:44:40.837Z,88.68
2022-09-20T04:45:40.856Z,88.78
2022-09-20T04:46:40.826Z,88.37
2022-09-20T04:47:40.788Z,88.47
2022-09-20T04:48:40.789Z,88.57
2022-09-20T04:49:40.777Z,88.17
2022-09-20T04:50:40.781Z,88.47
2022-09-20T04:51:40.794Z,88.06
2022-09-20T04:52:40.748Z,88.37
2022-09-20T04:53:40.743Z,88.47
2022-09-20T04:54:40.736Z,88.57
2022-09-20T04:55:40.731Z,88.57
2022-09-20T04:56:40.709Z,88.47
2022-09-20T04:57:40.700Z,88.17
2022-09-20T04:58:40.683Z,88.57
2022-09-20T04:59:40.668Z,88.57
2022-09-20T05:00:40.720Z,88.57
2022-09-20T05:01:40.754Z,88.57
2022-09-20T05:02:40.713Z,88.27
2022-09-20T05:03:40.642Z,88.57
2022-09-20T05:04:40.650Z,88.53
2022-09-20T05:05:40.643Z,88.47
2022-09-20T05:06:40.611Z,88.17
2022-09-20T05:07:40.602Z,88.33
2022-09-20T05:08:40.596Z,88.47
2022-09-20T05:09:40.585Z,88.27
2022-09-20T05:10:40.628Z,88.37
2022-09-20T05:11:40.567Z,88.57
2022-09-20T05:12:40.554Z,88.43
2022-09-20T05:13:40.543Z,88.53
2022-09-20T05:14:40.541Z,88.74
2022-09-20T05:15:40.534Z,88.53
2022-09-20T05:16:43.356Z,88.53
2022-09-20T05:17:40.504Z,88.94
2022-09-20T05:18:40.503Z,89.04
2022-09-20T05:19:40.487Z,88.78
2022-09-20T05:20:40.501Z,89.04
2022-09-20T05:21:40.472Z,89.04
2022-09-20T05:22:40.473Z,89.15
2022-09-20T05:23:40.451Z,89.15
2022-09-20T05:24:40.451Z,88.94
2022-09-20T05:25:40.459Z,89.04
2022-09-20T05:26:40.415Z,88.27
2022-09-20T05:27:40.410Z,88.12
2022-09-20T05:28:40.401Z,88.68
2022-09-20T05:29:40.392Z,88.43
2022-09-20T05:30:40.401Z,88.64
2022-09-20T05:31:40.496Z,88.88
2022-09-20T05:32:40.370Z,88.64
2022-09-20T05:33:40.361Z,88.27
2022-09-20T05:34:40.339Z,88.43
2022-09-20T05:35:40.354Z,88.33
2022-09-20T05:36:40.325Z,88.33
2022-09-20T05:37:40.312Z,88.33
2022-09-20T05:38:40.306Z,88.18
2022-09-20T05:39:40.293Z,88.23
2022-09-20T05:40:40.308Z,88.43
2022-09-20T05:41:40.281Z,87.30
2022-09-20T05:42:40.260Z,87.77
2022-09-20T05:43:40.256Z,87.57
2022-09-20T05:44:40.247Z,87.98
2022-09-20T05:45:40.314Z,87.67
2022-09-20T05:46:40.228Z,87.88
2022-09-20T05:47:40.217Z,87.77
2022-09-20T05:48:40.192Z,87.67
2022-09-20T05:49:40.189Z,87.67
2022-09-20T05:50:41.217Z,87.57
2022-09-20T05:51:40.178Z,87.22
2022-09-20T05:52:40.159Z,86.96
2022-09-20T05:53:41.184Z,86.75
2022-09-20T05:54:40.162Z,87.26
2022-09-20T05:55:40.157Z,87.73
2022-09-20T05:56:40.131Z,87.84
2022-09-20T05:57:40.120Z,87.47
2022-09-20T05:58:40.134Z,87.47
2022-09-20T05:59:40.104Z,88.49
2022-09-20T06:00:40.107Z,88.94
2022-09-20T06:01:40.080Z,88.70
2022-09-20T06:02:40.095Z,88.18
2022-09-20T06:03:40.071Z,88.70
2022-09-20T06:04:40.053Z,88.90
2022-09-20T06:05:40.064Z,88.80
2022-09-20T06:06:40.035Z,88.65
2022-09-20T06:07:40.026Z,89.17
2022-09-20T06:08:40.622Z,89.06
2022-09-20T06:09:40.003Z,89.68
2022-09-20T06:10:40.005Z,90.19
2022-09-20T06:11:40.057Z,89.37
2022-09-20T06:12:39.983Z,89.89
2022-09-20T06:13:39.963Z,89.47
2022-09-20T06:14:39.951Z,89.89
2022-09-20T06:15:39.961Z,89.98
2022-09-20T06:16:40.008Z,89.98
2022-09-20T06:17:39.922Z,89.94
2022-09-20T06:18:39.921Z,90.15
2022-09-20T06:19:39.908Z,89.74
2022-09-20T06:20:39.913Z,89.84
2022-09-20T06:21:39.884Z,89.94
2022-09-20T06:22:39.871Z,90.15
2022-09-20T06:23:39.873Z,90.15
2022-09-20T06:24:39.862Z,90.15
2022-09-20T06:25:39.882Z,90.05
2022-09-20T06:26:39.842Z,89.74
2022-09-20T06:27:39.836Z,90.05
2022-09-20T06:28:39.823Z,90.00
2022-09-20T06:29:39.816Z,89.90
2022-09-20T06:30:39.914Z,89.90
2022-09-20T06:31:39.804Z,89.80
2022-09-20T06:32:39.780Z,89.94
2022-09-20T06:33:39.781Z,89.80
2022-09-20T06:34:39.756Z,89.50
2022-09-20T06:35:39.772Z,89.90
2022-09-20T06:36:39.765Z,89.80
2022-09-20T06:37:39.793Z,90.00
2022-09-20T06:38:39.739Z,89.70
2022-09-20T06:39:39.722Z,89.56
2022-09-20T06:40:39.759Z,89.80
2022-09-20T06:41:40.703Z,89.50
2022-09-20T06:42:39.715Z,89.59
2022-09-20T06:43:39.683Z,89.39
2022-09-20T06:44:39.665Z,89.04
2022-09-20T06:45:39.697Z,89.76
2022-09-20T06:46:39.645Z,89.65
2022-09-20T06:47:39.631Z,89.56
2022-09-20T06:48:39.649Z,89.65
2022-09-20T06:49:39.619Z,89.35
2022-09-20T06:50:39.622Z,89.65
2022-09-20T06:51:39.600Z,89.45
2022-09-20T06:52:39.588Z,89.00
2022-09-20T06:53:39.586Z,89.25
2022-09-20T06:54:39.572Z,89.11
2022-09-20T06:55:39.577Z,89.00
2022-09-20T06:56:39.552Z,89.00
2022-09-20T06:57:39.547Z,89.00
2022-09-20T06:58:39.539Z,88.76
2022-09-20T06:59:39.525Z,89.11
2022-09-20T07:00:39.530Z,89.31
2022-09-20T07:01:39.632Z,89.41
2022-09-20T07:02:39.565Z,89.31
2022-09-20T07:03:39.488Z,89.51
2022-09-20T07:04:39.484Z,89.20
2022-09-20T07:05:39.477Z,89.41
2022-09-20T07:06:40.468Z,89.41
2022-09-20T07:07:39.449Z,89.20
2022-09-20T07:08:39.443Z,89.11
2022-09-20T07:09:39.422Z,89.11
2022-09-20T07:10:39.435Z,88.90
2022-09-20T07:11:39.410Z,89.11
2022-09-20T07:12:39.401Z,89.26
2022-09-20T07:13:39.412Z,88.96
2022-09-20T07:14:39.382Z,89.06
2022-09-20T07:15:39.394Z,88.85
2022-09-20T07:16:39.395Z,88.65
2022-09-20T07:17:39.388Z,88.65
2022-09-20T07:18:39.343Z,88.65
2022-09-20T07:19:39.330Z,88.55
2022-09-20T07:20:39.377Z,88.45
2022-09-20T07:21:39.310Z,88.45
2022-09-20T07:22:39.300Z,87.84
2022-09-20T07:23:39.288Z,88.24
2022-09-20T07:24:39.274Z,87.84
2022-09-20T07:25:39.294Z,88.10
2022-09-20T07:26:39.262Z,88.45
2022-09-20T07:27:39.246Z,88.41
2022-09-20T07:28:39.244Z,87.79
2022-09-20T07:29:39.220Z,88.10
2022-09-20T07:30:39.236Z,88.10
2022-09-20T07:31:39.252Z,87.53
2022-09-20T07:32:39.190Z,87.79
2022-09-20T07:33:39.177Z,87.38
2022-09-20T07:34:39.176Z,87.49
2022-09-20T07:35:39.167Z,87.59
2022-09-20T07:36:39.174Z,87.18
2022-09-20T07:37:39.181Z,87.49
2022-09-20T07:38:39.145Z,86.98
2022-09-20T07:39:39.124Z,86.94
2022-09-20T07:40:39.175Z,86.83
2022-09-20T07:41:39.119Z,86.67
2022-09-20T07:42:39.103Z,86.47
2022-09-20T07:43:39.097Z,86.77
2022-09-20T07:44:39.074Z,85.86
2022-09-20T07:45:39.101Z,86.26
2022-09-20T07:46:39.070Z,86.10
2022-09-20T07:47:39.048Z,86.90
2022-09-20T07:48:39.037Z,87.20
2022-09-20T07:49:39.007Z,87.67
2022-09-20T07:50:39.007Z,87.77
2022-09-20T07:51:39.025Z,87.57
2022-09-20T07:52:39.013Z,87.37
2022-09-20T07:53:38.978Z,85.88
2022-09-20T07:54:38.974Z,85.36
2022-09-20T07:55:38.964Z,84.75
2022-09-20T07:56:38.967Z,84.91
2022-09-20T07:57:39.613Z,85.22
2022-09-20T07:58:38.950Z,85.08
2022-09-20T07:59:38.931Z,85.18
2022-09-20T08:00:38.917Z,85.14
2022-09-20T08:01:38.926Z,85.35
2022-09-20T08:02:38.915Z,85.21
2022-09-20T08:03:38.885Z,85.10
2022-09-20T08:04:38.951Z,85.21
2022-09-20T08:05:38.870Z,85.77
2022-09-20T08:06:38.873Z,85.53
2022-09-20T08:07:39.644Z,85.22
2022-09-20T08:08:38.830Z,85.53
2022-09-20T08:09:38.828Z,84.92
2022-09-20T08:10:38.811Z,83.70
2022-09-20T08:11:38.822Z,83.29
2022-09-20T08:14:40.767Z,82.37
2022-09-20T08:15:38.757Z,82.47
2022-09-20T08:16:38.804Z,82.43
2022-09-20T08:17:38.747Z,82.27
2022-09-20T08:18:38.731Z,81.62
2022-09-20T08:19:38.717Z,82.64
2022-09-20T08:20:38.711Z,82.94
2022-09-20T08:21:38.719Z,83.25
2022-09-20T08:22:38.686Z,83.65
2022-09-20T08:23:38.677Z,83.56
2022-09-20T08:24:38.668Z,83.56
2022-09-20T08:25:56.035Z,83.72
2022-09-20T08:26:38.663Z,83.62
2022-09-20T08:27:38.634Z,83.96
2022-09-20T08:28:38.628Z,83.56
2022-09-20T08:29:38.620Z,83.86
2022-09-20T08:30:38.614Z,83.82
2022-09-20T08:31:38.677Z,83.82
2022-09-20T08:32:38.590Z,83.76
2022-09-20T08:33:38.613Z,83.86
2022-09-20T08:34:38.569Z,84.20
2022-09-20T08:35:38.634Z,84.92
2022-09-20T08:36:39.571Z,84.61
2022-09-20T08:37:38.547Z,84.61
2022-09-20T08:39:57.657Z,84.82
2022-09-20T08:40:39.576Z,84.92
2022-09-20T08:41:38.516Z,84.72
2022-09-20T08:42:43.728Z,84.82
2022-09-20T08:43:45.547Z,84.92
2022-09-20T08:44:45.331Z,85.22
2022-09-20T08:45:39.497Z,85.13
2022-09-20T08:46:38.525Z,85.13
2022-09-20T08:47:38.456Z,85.19
2022-09-20T08:48:38.426Z,84.82
2022-09-20T08:49:38.421Z,85.02
2022-09-20T08:50:38.416Z,84.92
2022-09-20T08:51:38.429Z,84.78
2022-09-20T08:52:38.391Z,84.88
2022-09-20T08:53:38.374Z,84.88
2022-09-20T08:54:38.382Z,84.58
2022-09-20T08:55:38.358Z,84.84
2022-09-20T08:56:38.377Z,84.94
2022-09-20T08:57:38.343Z,84.12
2022-09-20T08:58:38.329Z,83.78
2022-09-20T08:59:38.312Z,83.78
2022-09-20T09:00:38.316Z,83.34
2022-09-20T09:01:38.321Z,83.37
2022-09-20T09:02:38.329Z,82.99
2022-09-20T09:03:38.286Z,82.59
2022-09-20T09:04:38.273Z,82.68
2022-09-20T09:05:38.261Z,82.18
2022-09-20T09:06:38.275Z,81.63
2022-09-20T09:07:38.254Z,80.62
2022-09-20T09:08:38.281Z,80.31
2022-09-20T09:09:39.226Z,80.58
2022-09-20T09:10:45.374Z,79.46
2022-09-20T09:11:45.727Z,79.56
2022-09-20T09:12:39.193Z,77.94
2022-09-20T09:13:38.183Z,78.08
2022-09-20T09:14:38.176Z,78.28
2022-09-20T09:15:38.162Z,78.17
2022-09-20T09:16:38.232Z,77.87
2022-09-20T09:17:38.149Z,76.75
2022-09-20T09:18:38.132Z,76.79
2022-09-20T09:19:38.119Z,77.09
2022-09-20T09:20:38.120Z,76.99
2022-09-20T09:21:38.121Z,76.82
2022-09-20T09:22:38.098Z,76.96
2022-09-20T09:23:38.082Z,77.37
2022-09-20T09:24:38.073Z,77.06
2022-09-20T09:25:38.078Z,77.74
2022-09-20T09:26:38.066Z,78.25
2022-09-20T09:27:38.040Z,78.05
2022-09-20T09:28:38.032Z,78.35
2022-09-20T09:29:38.020Z,77.53
2022-09-20T09:30:38.010Z,77.44
2022-09-20T09:31:38.065Z,77.23
2022-09-20T09:32:37.991Z,77.74
2022-09-20T09:33:37.987Z,77.20
2022-09-20T09:34:37.974Z,76.72
2022-09-20T09:35:37.959Z,76.78
2022-09-20T09:36:37.977Z,76.64
2022-09-20T09:37:37.947Z,76.64
2022-09-20T09:38:37.936Z,77.01
2022-09-20T09:39:37.921Z,76.57
2022-09-20T09:40:37.988Z,76.06
2022-09-20T09:41:37.927Z,75.19
2022-09-20T09:42:37.889Z,72.58
2022-09-20T09:43:37.881Z,71.64
2022-09-20T09:44:37.871Z,73.23
2022-09-20T09:45:37.926Z,73.63
2022-09-20T09:46:37.865Z,74.48
2022-09-20T09:47:37.837Z,75.30
2022-09-20T09:48:39.706Z,76.31
2022-09-20T09:49:38.826Z,76.96
2022-09-20T09:50:37.815Z,78.02
2022-09-20T09:51:37.826Z,78.56
2022-09-20T09:52:37.789Z,78.36
2022-09-20T09:53:37.809Z,77.37
2022-09-20T09:54:37.796Z,77.07
2022-09-20T09:55:37.765Z,76.25
2022-09-20T09:56:37.773Z,77.07
2022-09-20T09:57:37.750Z,77.37
2022-09-20T09:58:37.740Z,77.27
2022-09-20T09:59:37.717Z,77.17
2022-09-20T10:00:37.715Z,77.14
2022-09-20T10:01:37.814Z,76.42
2022-09-20T10:02:37.713Z,77.40
2022-09-20T10:03:37.683Z,75.98
2022-09-20T10:04:37.681Z,75.98
2022-09-20T10:05:37.671Z,75.74
2022-09-20T10:06:37.675Z,75.20
2022-09-20T10:07:37.649Z,75.16
2022-09-20T10:08:37.642Z,75.46
2022-09-20T10:09:37.622Z,75.02
2022-09-20T10:10:37.617Z,73.23
2022-09-20T10:11:37.623Z,75.06
2022-09-20T10:12:37.597Z,75.26
2022-09-20T10:13:40.660Z,75.16
2022-09-20T10:14:38.642Z,74.11
2022-09-20T10:15:37.569Z,73.50
2022-09-20T10:16:37.635Z,72.52
2022-09-20T10:17:37.556Z,74.21
2022-09-20T10:18:37.539Z,74.41
2022-09-20T10:19:37.535Z,74.69
2022-09-20T10:20:37.524Z,74.58
2022-09-20T10:21:37.525Z,75.60
2022-09-20T10:22:37.503Z,75.30
2022-09-20T10:24:02.163Z,75.40
2022-09-20T10:24:39.478Z,75.43
2022-09-20T10:25:37.467Z,75.37
2022-09-20T10:26:37.650Z,76.08
2022-09-20T10:27:37.454Z,76.15
2022-09-20T10:28:37.443Z,74.32
2022-09-20T10:29:37.443Z,74.21
2022-09-20T10:30:37.500Z,72.75
2022-09-20T10:31:37.428Z,72.89
2022-09-20T10:32:37.403Z,72.89
2022-09-20T10:33:37.410Z,73.10
2022-09-20T10:34:37.383Z,71.56
2022-09-20T10:35:37.381Z,72.86
2022-09-20T10:36:37.387Z,71.84
2022-09-20T10:37:37.363Z,71.23
2022-09-20T10:38:37.349Z,71.43
2022-09-20T10:39:37.331Z,72.08
2022-09-20T10:40:37.355Z,72.78
2022-09-20T10:41:37.335Z,74.82
2022-09-20T10:42:37.311Z,72.69
2022-09-20T10:43:37.298Z,70.68
2022-09-20T10:44:37.286Z,71.19
2022-09-20T10:46:08.275Z,72.11
2022-09-20T10:46:39.328Z,72.45
2022-09-20T10:47:37.277Z,71.73
2022-09-20T10:48:37.253Z,71.63
2022-09-20T10:49:37.252Z,71.60
2022-09-20T10:50:37.229Z,71.70
2022-09-20T10:51:37.239Z,71.70
2022-09-20T10:52:38.206Z,71.80
2022-09-20T10:53:37.203Z,70.55
2022-09-20T10:54:37.195Z,71.67
2022-09-20T10:55:37.174Z,71.33
2022-09-20T10:56:37.192Z,71.73
2022-09-20T10:57:37.169Z,70.79
2022-09-20T10:58:37.147Z,69.43
2022-09-20T10:59:37.146Z,68.79
2022-09-20T11:00:37.145Z,67.88
2022-09-20T11:01:37.231Z,68.59
2022-09-20T11:02:37.174Z,68.66
2022-09-20T11:03:37.100Z,68.55
2022-09-20T11:04:37.093Z,68.59
2022-09-20T11:05:37.085Z,69.09
2022-09-20T11:06:37.096Z,69.91
2022-09-20T11:07:37.072Z,69.40
2022-09-20T11:08:37.061Z,69.43
2022-09-20T11:09:37.090Z,71.09
2022-09-20T11:10:37.038Z,70.58
2022-09-20T11:11:37.048Z,71.84
2022-09-20T11:12:37.013Z,72.14
2022-09-20T11:13:37.003Z,73.47
2022-09-20T11:14:36.996Z,72.75
2022-09-20T11:15:36.985Z,71.73
2022-09-20T11:16:37.039Z,71.26
2022-09-20T11:17:36.963Z,71.56
2022-09-20T11:18:36.947Z,71.73
2022-09-20T11:19:36.952Z,71.56
2022-09-20T11:20:36.936Z,71.97
2022-09-20T11:21:36.942Z,71.73
2022-09-20T11:22:36.911Z,71.43
2022-09-20T11:23:36.905Z,71.73
2022-09-20T11:24:36.891Z,71.53
2022-09-20T11:25:36.885Z,72.34
2022-09-20T11:26:36.888Z,72.14
2022-09-20T11:27:36.863Z,71.84
2022-09-20T11:28:36.858Z,69.67
2022-09-20T11:29:36.884Z,70.65
2022-09-20T11:30:36.827Z,70.55
2022-09-20T11:31:36.902Z,70.25
2022-09-20T11:32:36.813Z,71.47
2022-09-20T11:33:41.184Z,69.94
2022-09-20T11:34:36.792Z,70.45
2022-09-20T11:35:36.789Z,68.75
2022-09-20T11:36:36.820Z,68.72
2022-09-20T11:37:36.768Z,68.82
2022-09-20T11:38:36.756Z,70.18
2022-09-20T11:39:36.746Z,69.53
2022-09-20T11:40:36.829Z,68.24
2022-09-20T11:41:36.741Z,68.75
2022-09-20T11:42:36.716Z,68.75
2022-09-20T11:43:36.698Z,70.79
2022-09-20T11:44:36.689Z,69.36
2022-09-20T11:45:36.703Z,71.19
2022-09-20T11:46:36.694Z,69.36
2022-09-20T11:47:53.857Z,70.62
2022-09-20T11:48:38.655Z,68.48
2022-09-20T11:49:36.640Z,69.90
2022-09-20T11:50:36.635Z,70.31
2022-09-20T11:51:36.636Z,69.80
2022-09-20T11:52:36.621Z,70.21
2022-09-20T11:53:37.068Z,70.72
2022-09-20T11:54:37.592Z,71.12
2022-09-20T11:55:36.582Z,70.41
2022-09-20T11:56:36.597Z,70.18
2022-09-20T11:57:36.546Z,70.68
2022-09-20T11:58:37.553Z,71.57
2022-09-20T11:59:36.537Z,69.81
2022-09-20T12:00:36.535Z,69.20
2022-09-20T12:01:36.708Z,69.20
2022-09-20T12:02:36.635Z,68.28
2022-09-20T12:03:36.608Z,67.77
2022-09-20T12:04:36.940Z,68.18
2022-09-20T12:05:36.486Z,68.66
2022-09-20T12:06:36.489Z,67.84
2022-09-20T12:07:36.467Z,67.20
2022-09-20T12:08:36.454Z,68.08
2022-09-20T12:09:36.441Z,65.62
2022-09-20T12:10:36.436Z,63.35
2022-09-20T12:11:36.441Z,63.46
2022-09-20T12:12:36.419Z,64.34
2022-09-20T12:13:36.399Z,67.38
2022-09-20T12:14:36.388Z,64.47
2022-09-20T12:15:36.423Z,63.15
2022-09-20T12:16:36.483Z,64.47
2022-09-20T12:17:36.352Z,63.15
2022-09-20T12:18:36.348Z,64.30
2022-09-20T12:19:36.345Z,65.31
2022-09-20T12:20:36.343Z,63.69
2022-09-20T12:21:36.352Z,64.17
2022-09-20T12:22:36.319Z,63.59
2022-09-20T12:23:36.300Z,64.40
2022-09-20T12:24:38.513Z,61.59
2022-09-20T12:25:36.282Z,61.29
2022-09-20T12:26:36.294Z,63.01
2022-09-20T12:27:36.266Z,60.88
2022-09-20T12:28:36.258Z,61.69
2022-09-20T12:29:36.250Z,62.10
2022-09-20T12:30:36.239Z,62.81
2022-09-20T12:31:36.293Z,63.72
2022-09-20T12:32:36.230Z,61.59
2022-09-20T12:33:36.207Z,60.68
2022-09-20T12:34:36.192Z,62.13
2022-09-20T12:35:36.189Z,61.99
2022-09-20T12:36:36.279Z,61.93
2022-09-20T12:37:36.157Z,62.43
2022-09-20T12:38:36.166Z,64.56
2022-09-20T12:39:36.145Z,65.51
2022-09-20T12:40:36.159Z,63.75
2022-09-20T12:41:37.153Z,64.46
2022-09-20T12:42:36.127Z,64.33
2022-09-20T12:43:36.117Z,61.69
2022-09-20T12:44:36.094Z,61.69
2022-09-20T12:45:36.114Z,60.37
2022-09-20T12:46:36.106Z,61.29
2022-09-20T12:47:36.068Z,62.07
2022-09-20T12:48:36.106Z,61.56
2022-09-20T12:49:36.056Z,60.98
2022-09-20T12:50:36.048Z,60.98
2022-09-20T12:51:36.042Z,60.85
2022-09-20T12:52:36.062Z,60.35
2022-09-20T12:53:36.038Z,61.66
2022-09-20T12:54:36.017Z,61.56
2022-09-20T12:55:35.996Z,62.07